This is the latest recevied weather packets stored in our database for station/object DB7GV-8. If no packets are shown the sender has not sent any weather packets the latest 10 day(s).
| Time | Temp. | Humidity | Pressure | Rain* | Wind** | Luminosity | Snow |
|---|---|---|---|---|---|---|---|
| 1778069851 | 17.22° C | 60% | 1008.1 hPa | - | - | - | - |
| 1778068041 | 18.33° C | 60% | 1008 hPa | - | - | - | - |
| 1778067135 | 17.22° C | 66% | 1008 hPa | - | - | - | - |
| 1778066230 | 17.22° C | 66% | 1008.1 hPa | - | - | - | - |
| 1778065324 | 16.11° C | 68% | 1008.2 hPa | - | - | - | - |
| 1778064419 | 17.22° C | 68% | 1008.1 hPa | - | - | - | - |
| 1778063514 | 15.56° C | 70% | 1008.2 hPa | - | - | - | - |
| 1778062608 | 15.56° C | 70% | 1008.4 hPa | - | - | - | - |
| 1778060797 | 15° C | 69% | 1008.4 hPa | - | - | - | - |
| 1778059891 | 15° C | 70% | 1008.4 hPa | - | - | - | - |
| 1778058081 | 15° C | 67% | 1008.5 hPa | - | - | - | - |
| 1778057176 | 16.11° C | 64% | 1008.3 hPa | - | - | - | - |
| 1778056270 | 16.11° C | 61% | 1008.2 hPa | - | - | - | - |
| 1778055365 | 17.78° C | 56% | 1008.1 hPa | - | - | - | - |
| 1778054460 | 23.33° C | 47% | 1008.3 hPa | - | - | - | - |
| 1778053554 | 19.44° C | 53% | 1008.3 hPa | - | - | - | - |
| 1778052649 | 22.78° C | 48% | 1008.4 hPa | - | - | - | - |
| 1778050837 | 21.67° C | 64% | 1008.6 hPa | - | - | - | - |
| 1778049932 | 12.78° C | 87% | 1008.6 hPa | - | - | - | - |
| 1778049027 | 10.56° C | 89% | 1008.5 hPa | - | - | - | - |
| 1778048121 | 10.56° C | 89% | 1008.5 hPa | - | - | - | - |
| 1778047216 | 10° C | 89% | 1008.5 hPa | - | - | - | - |
| 1778046311 | 9.44° C | 90% | 1008.7 hPa | - | - | - | - |
| 1778044500 | 8.89° C | 90% | 1008.8 hPa | - | - | - | - |
| 1778043595 | 8.33° C | 91% | 1008.9 hPa | - | - | - | - |
* Rain since midnight (hover to see other rain measurements)
** Current wind speed in m/s (hover to see current wind gust speed)